Flight Track Log - Related Links

Times and Time Zones

All times are in EDT time to prevent confusion due to time zone crossing. See the N1570N flight status page for this flight to view local times or setup timezone preferences in your user account.


Time Position Orientation Groundspeed Altitude Reporting Facility
EDT Latitude Longitude Course Direction KTS MPH feet Rate Location/Type
Thu 10:14:03 AM 39.1333 -94.5833 123° Southeast 101 116 1,700  Level Kansas City TRACON
Thu 10:15:03 AM 39.1167 -94.5500 123° Southeast 106 122 2,900 1,143 Climbing Kansas City TRACON
Thu 10:16:09 AM 39.0833 -94.5167 142° Southeast 141 162 4,100 1,158 Climbing Kansas City TRACON
Thu 10:16:57 AM 39.0667 -94.5000 142° Southeast 145 167 5,100 737 Climbing Kansas City TRACON
Thu 10:18:03 AM 39.0167 -94.4667 153° Southeast 153 176 5,500 190 Climbing Kansas City TRACON
Thu 10:19:03 AM 38.9667 -94.4333 153° Southeast 202 232 5,500 365 Level Kansas City TRACON
Thu 10:19:58 AM 38.9167 -94.4000 153° Southeast 225 259 6,200 942 Climbing Kansas City TRACON
Thu 10:21:04 AM 38.8667 -94.3500 142° Southeast 198 228 7,400 538 Climbing Kansas City TRACON
Thu 10:22:23 AM 38.8114 -94.3083 150° Southeast 200 230 7,500 43 Climbing Kansas City Center
Thu 10:23:25 AM 38.7594 -94.2686 149° Southeast 219 252 7,500  Level Kansas City Center
Thu 10:24:27 AM 38.6989 -94.2214 149° Southeast 225 259 7,500  Level Kansas City Center
Thu 10:25:29 AM 38.6467 -94.1828 150° Southeast 227 261 7,500  Level Kansas City Center
Thu 10:26:31 AM 38.5853 -94.1367 150° Southeast 229 264 7,500  Level Kansas City Center
Thu 10:27:33 AM 38.5325 -94.0950 148° Southeast 231 266 7,500  Level Kansas City Center
Thu 10:28:35 AM 38.4689 -94.0489 150° Southeast 234 269 7,500  Level Kansas City Center
Thu 10:29:37 AM 38.4194 -94.0086 147° Southeast 235 270 7,500  Level Kansas City Center
Thu 10:30:39 AM 38.3631 -93.9669 150° Southeast 233 268 7,500  Level Kansas City Center
Thu 10:31:41 AM 38.2975 -93.9158 149° Southeast 231 266 7,500  Level Kansas City Center
Thu 10:32:43 AM 38.2419 -93.8728 149° Southeast 231 266 7,500  Level Kansas City Center
Thu 10:33:45 AM 38.1881 -93.8303 148° Southeast 229 264 7,500  Level Kansas City Center
Thu 10:34:47 AM 38.1328 -93.7886 149° Southeast 230 265 7,500  Level Kansas City Center
Thu 10:35:50 AM 38.0772 -93.7461 149° Southeast 231 266 7,500  Level Kansas City Center
Thu 10:36:52 AM 38.0208 -93.7039 149° Southeast 233 268 7,500  Level Kansas City Center
Thu 10:37:54 AM 37.9644 -93.6617 149° Southeast 235 270 7,500  Level Kansas City Center
Thu 10:38:56 AM 37.8997 -93.6106 148° Southeast 232 267 7,500  Level Kansas City Center
Thu 10:39:58 AM 37.8456 -93.5683 148° Southeast 229 264 7,500  Level Kansas City Center
Thu 10:41:00 AM 37.7908 -93.5269 149° Southeast 229 264 7,500  Level Kansas City Center
Thu 10:42:02 AM 37.7356 -93.4847 149° Southeast 230 265 7,500  Level Kansas City Center
Thu 10:43:04 AM 37.6803 -93.4439 150° Southeast 230 265 7,500  Level Kansas City Center
Thu 10:44:06 AM 37.6247 -93.4033 150° Southeast 230 265 7,500  Level Kansas City Center
Thu 10:45:08 AM 37.5586 -93.3519 148° Southeast 231 266 7,500  Level Kansas City Center
Thu 10:46:10 AM 37.5025 -93.3094 149° Southeast 234 269 7,500  Level Kansas City Center
Thu 10:47:12 AM 37.4458 -93.2683 150° Southeast 233 268 7,500  Level Kansas City Center
Thu 10:48:14 AM 37.3903 -93.2272 150° Southeast 233 268 7,500  Level Kansas City Center
Thu 10:49:16 AM 37.3339 -93.1842 149° Southeast 234 269 7,500  Level Kansas City Center
Thu 10:50:18 AM 37.2772 -93.1428 150° Southeast 235 270 7,500  Level Kansas City Center
Thu 10:51:20 AM 37.2203 -93.0997 149° Southeast 235 270 7,500  Level Kansas City Center
Thu 10:52:22 AM 37.1525 -93.0489 149° Southeast 237 273 7,500  Level Kansas City Center
Thu 10:53:24 AM 37.0953 -93.0069 150° Southeast 237 273 7,500  Level Kansas City Center
Thu 10:54:26 AM 37.0383 -92.9644 149° Southeast 237 273 7,500  Level Kansas City Center
Thu 10:55:28 AM 36.9806 -92.9217 149° Southeast 238 274 7,500  Level Kansas City Center
Thu 10:56:30 AM 36.9228 -92.8792 150° Southeast 240 276 7,500 -144 Level Kansas City Center
Thu 10:57:33 AM 36.8653 -92.8369 150° Southeast 240 276 7,200 -528 Descending Kansas City Center
Thu 10:58:35 AM 36.7942 -92.7839 149° Southeast 243 280 6,400 -774 Descending Kansas City Center
Thu 10:59:37 AM 36.7394 -92.7394 147° Southeast 239 275 5,600 -677 Descending Kansas City Center
Thu 11:00:39 AM 36.6869 -92.7008 149° Southeast 232 267 5,000 -532 Descending Kansas City Center
Thu 11:01:41 AM 36.6431 -92.6722 152° Southeast 225 259 4,500 -484 Descending Kansas City Center
Thu 11:04:00 AM 36.5260 -92.5902 149° Southeast  Level FlightAware Approximate
Thu 11:11:00 AM 36.3667 -92.4667 141° Southeast  Level FlightAware Approximate
Thu 11:12:00 AM 36.3689 -92.4705 141° Southeast  Level Estimated

Login

Don't have an account? Register now (free) for customized features, flight alerts, and more!